Majestic, Kentucky
Current Conditions -  °F | °C
As of 7:15 PM on Wednesday 26 Nov 2014 (Local Time) from KPBX Reporting Station
Scattered Clouds Scattered Clouds  
Wind Chill: 41°   Ceiling: Unl
Heat Index: 41°   Visibility: 10mi
Dew Point: 27°   Wind: 3mph
Humidity: 58%   Direction: 290°WNW
Pressure: 29.99"   Gusts: NA
Location:  37.53°N, 82.1°W
Report Text: KPBX 270015Z AUTO 29003KT 10SM SCT050 05/M03 A2999 RMK AO2 T00501027
Loading
Personal Weather Stations






























Interactive Weather Map New forecast layout! Learn more

10-Day Weather Forecast

Advertisements
Track Severe Weather on mobile